Time;durP1;ratioP1;P1;durP2;ratioP2;P2;SDS_P1;SDS_P2;PMS_P1;PMS_P2;Temp;Humidity;BMP_temperature;BMP_pressure;BME280_temperature;BME280_humidity;BME280_pressure;Samples;Min_cycle;Max_cycle;Signal;HPM_P1;HPM_P2
2023/11/18 00:00:59;;;;;;;3.63;3.13;;;1.90;99.90;;;;;;5050060;28;20045;-63
2023/11/18 00:03:26;;;;;;;3.45;2.53;;;1.80;99.90;;;;;;5037536;28;20045;-61
2023/11/18 00:05:53;;;;;;;4.20;2.58;;;1.90;99.90;;;;;;5053211;28;20470;-63
2023/11/18 00:08:19;;;;;;;2.05;1.48;;;1.80;99.90;;;;;;5053372;28;20044;-61
2023/11/18 00:10:47;;;;;;;3.45;2.22;;;1.80;99.90;;;;;;5056475;28;20546;-63
2023/11/18 00:13:15;;;;;;;5.30;2.88;;;1.80;99.90;;;;;;5050335;28;20065;-63
2023/11/18 00:15:42;;;;;;;4.13;2.83;;;1.80;99.90;;;;;;5051862;28;20072;-62
2023/11/18 00:18:09;;;;;;;3.58;2.33;;;1.70;99.90;;;;;;5055840;28;20045;-63
2023/11/18 00:20:36;;;;;;;5.90;3.50;;;1.70;99.90;;;;;;5051173;28;20039;-61
2023/11/18 00:23:06;;;;;;;4.47;3.75;;;1.70;99.90;;;;;;5059938;28;20457;-64
2023/11/18 00:25:35;;;;;;;4.60;4.10;;;1.70;99.90;;;;;;5047946;28;20051;-60
2023/11/18 00:28:02;;;;;;;3.58;3.00;;;1.70;99.90;;;;;;5054674;28;20137;-65
2023/11/18 00:30:29;;;;;;;4.78;3.40;;;1.70;99.90;;;;;;5051298;28;20449;-60
2023/11/18 00:32:56;;;;;;;3.92;3.58;;;1.70;99.90;;;;;;5046519;28;20041;-63
2023/11/18 00:35:25;;;;;;;4.43;3.38;;;1.70;99.90;;;;;;5033015;28;20627;-62
2023/11/18 00:37:51;;;;;;;4.85;3.88;;;1.70;99.90;;;;;;5050468;28;20568;-61
2023/11/18 00:40:18;;;;;;;4.72;3.40;;;1.70;99.90;;;;;;5058994;28;20037;-61
2023/11/18 00:42:45;;;;;;;4.80;3.63;;;1.70;99.90;;;;;;5054272;28;20069;-62
2023/11/18 00:45:12;;;;;;;4.18;3.72;;;1.70;99.90;;;;;;5049333;28;20049;-60
2023/11/18 00:47:41;;;;;;;5.43;3.13;;;1.70;99.90;;;;;;5059487;28;20064;-62
2023/11/18 00:50:08;;;;;;;4.97;3.53;;;1.70;99.90;;;;;;5049461;28;20064;-67
2023/11/18 00:52:38;;;;;;;4.60;3.85;;;1.70;99.90;;;;;;5035963;28;20053;-65
2023/11/18 00:55:07;;;;;;;6.32;3.85;;;1.70;99.90;;;;;;5033947;28;20106;-63
2023/11/18 00:57:34;;;;;;;4.30;3.33;;;1.70;99.90;;;;;;5052039;28;20040;-60
2023/11/18 01:00:02;;;;;;;5.60;4.13;;;1.60;99.90;;;;;;5050719;28;20033;-61
2023/11/18 01:02:29;;;;;;;4.97;3.40;;;1.60;99.90;;;;;;5050671;28;20033;-61
2023/11/18 01:04:56;;;;;;;4.53;3.45;;;1.60;99.90;;;;;;5042281;28;20123;-69
2023/11/18 01:07:23;;;;;;;6.25;3.75;;;1.70;99.90;;;;;;5033033;28;20156;-61
2023/11/18 01:09:50;;;;;;;3.58;3.00;;;1.60;99.90;;;;;;5049289;28;20045;-65
2023/11/18 01:12:17;;;;;;;4.65;3.22;;;1.70;99.90;;;;;;5036083;28;20036;-61
2023/11/18 01:14:44;;;;;;;4.35;3.78;;;1.70;99.90;;;;;;5052241;28;20045;-63
2023/11/18 01:17:10;;;;;;;8.07;5.05;;;1.60;99.90;;;;;;5056059;28;20033;-62
2023/11/18 01:19:37;;;;;;;4.13;3.50;;;1.60;99.90;;;;;;5056802;28;20121;-63
2023/11/18 01:22:05;;;;;;;5.15;4.45;;;1.60;99.90;;;;;;5051765;28;20039;-60
2023/11/18 01:24:33;;;;;;;5.22;4.28;;;1.60;99.90;;;;;;5055341;28;20186;-64
2023/11/18 01:27:00;;;;;;;5.45;4.13;;;1.60;99.90;;;;;;5018803;28;20067;-61
2023/11/18 01:29:27;;;;;;;6.32;3.47;;;1.60;99.90;;;;;;5047568;28;20426;-63
2023/11/18 01:31:58;;;;;;;3.88;3.40;;;1.60;99.90;;;;;;5047576;28;20048;-61
2023/11/18 01:34:26;;;;;;;4.40;3.22;;;1.60;99.90;;;;;;5053138;28;20493;-62
2023/11/18 01:36:53;;;;;;;4.78;3.72;;;1.60;99.90;;;;;;5050323;28;20076;-62
2023/11/18 01:39:20;;;;;;;6.63;3.60;;;1.60;99.90;;;;;;5035365;28;20045;-64
2023/11/18 01:41:49;;;;;;;4.45;3.28;;;1.60;99.90;;;;;;5051397;28;20505;-61
2023/11/18 01:44:17;;;;;;;3.35;2.63;;;1.60;99.90;;;;;;5050436;28;20037;-63
2023/11/18 01:46:45;;;;;;;4.68;2.90;;;1.60;99.90;;;;;;5054962;28;20044;-66
2023/11/18 01:49:13;;;;;;;4.00;2.95;;;1.70;99.90;;;;;;5051061;28;20399;-60
2023/11/18 01:51:43;;;;;;;3.17;2.95;;;1.60;99.90;;;;;;5057510;28;20103;-60
2023/11/18 01:54:15;;;;;;;3.57;2.80;;;1.60;99.90;;;;;;5053902;28;20430;-60
2023/11/18 01:56:46;;;;;;;4.03;3.53;;;1.60;99.90;;;;;;5049755;28;20638;-60
2023/11/18 01:59:19;;;;;;;4.55;3.03;;;1.60;99.90;;;;;;5038400;28;20045;-60
2023/11/18 02:01:49;;;;;;;3.30;2.70;;;1.60;99.90;;;;;;5032644;28;20041;-62
2023/11/18 02:04:19;;;;;;;3.47;2.40;;;1.60;99.90;;;;;;5033966;28;20037;-65
2023/11/18 02:06:49;;;;;;;2.50;2.20;;;1.60;99.90;;;;;;5029708;28;20044;-62
2023/11/18 02:09:17;;;;;;;5.33;2.70;;;1.70;99.90;;;;;;5016118;28;20051;-67
2023/11/18 02:11:54;;;;;;;3.42;2.50;;;1.70;99.90;;;;;;5056708;28;20032;-61
2023/11/18 02:14:26;;;;;;;3.75;2.80;;;1.70;99.90;;;;;;5049387;28;20049;-60
2023/11/18 02:16:57;;;;;;;4.65;2.35;;;1.70;99.90;;;;;;5053243;28;20041;-60
2023/11/18 02:19:25;;;;;;;6.50;2.72;;;1.70;99.90;;;;;;5048089;28;20068;-60
2023/11/18 02:21:56;;;;;;;4.10;3.05;;;1.70;99.90;;;;;;5036823;28;20065;-61
2023/11/18 02:24:28;;;;;;;2.55;2.30;;;1.70;99.90;;;;;;5033334;28;20051;-63
2023/11/18 02:26:56;;;;;;;3.22;2.65;;;1.70;99.90;;;;;;5039218;28;20040;-60
2023/11/18 02:29:35;;;;;;;5.43;2.05;;;1.80;99.90;;;;;;5033520;28;20133;-60
2023/11/18 02:32:30;;;;;;;2.85;2.38;;;1.80;99.90;;;;;;5059335;28;20040;-63
2023/11/18 02:35:25;;;;;;;3.33;1.85;;;1.80;99.90;;;;;;5018093;28;20037;-68
2023/11/18 02:37:54;;;;;;;2.88;1.63;;;1.70;99.90;;;;;;5060006;28;20439;-60
2023/11/18 02:40:32;;;;;;;2.72;2.10;;;1.70;99.90;;;;;;5030427;28;20514;-63
2023/11/18 02:43:01;;;;;;;3.33;2.88;;;1.70;99.90;;;;;;5042127;28;20055;-65
2023/11/18 02:45:28;;;;;;;8.43;2.35;;;1.70;99.90;;;;;;5045187;28;20049;-62
2023/11/18 02:47:57;;;;;;;2.58;2.22;;;1.70;99.90;;;;;;5048816;28;20095;-61
2023/11/18 02:50:25;;;;;;;2.55;2.35;;;1.60;99.90;;;;;;5040871;28;20052;-60
2023/11/18 02:52:52;;;;;;;2.10;1.92;;;1.60;99.90;;;;;;5048260;28;20494;-61
2023/11/18 02:55:22;;;;;;;3.22;2.80;;;1.60;99.90;;;;;;5025611;28;20079;-62
2023/11/18 02:57:51;;;;;;;3.20;2.00;;;1.60;99.90;;;;;;5042947;28;20049;-62
2023/11/18 03:00:21;;;;;;;6.50;2.65;;;1.60;99.90;;;;;;5044205;28;20049;-62
2023/11/18 03:02:51;;;;;;;2.83;2.30;;;1.60;99.90;;;;;;5041889;28;20044;-62
2023/11/18 03:05:19;;;;;;;3.47;2.53;;;1.60;99.90;;;;;;5044254;28;20064;-61
2023/11/18 03:07:50;;;;;;;2.63;2.33;;;1.60;99.90;;;;;;5030207;28;20049;-63
2023/11/18 03:10:22;;;;;;;4.32;2.38;;;1.60;99.90;;;;;;5043946;28;20124;-60
2023/11/18 03:12:53;;;;;;;4.05;2.83;;;1.60;99.90;;;;;;5021542;28;20050;-63
2023/11/18 03:15:22;;;;;;;2.13;1.58;;;1.60;99.90;;;;;;5039273;28;20061;-63
2023/11/18 03:17:51;;;;;;;2.97;1.95;;;1.60;99.90;;;;;;5028844;28;20091;-63
2023/11/18 03:20:20;;;;;;;2.88;1.85;;;1.60;99.90;;;;;;5051087;28;20479;-66
2023/11/18 03:22:47;;;;;;;3.47;2.33;;;1.60;99.90;;;;;;5048866;28;20041;-61
2023/11/18 03:25:15;;;;;;;3.25;2.13;;;1.60;99.90;;;;;;5051584;28;20150;-60
2023/11/18 03:27:44;;;;;;;3.35;2.00;;;1.60;99.90;;;;;;5048402;28;20049;-65
2023/11/18 03:30:11;;;;;;;2.38;1.98;;;1.60;99.90;;;;;;5042411;28;20076;-60
2023/11/18 03:32:42;;;;;;;2.78;2.58;;;1.60;99.90;;;;;;5047301;28;20049;-60
2023/11/18 03:35:09;;;;;;;3.38;2.05;;;1.60;99.90;;;;;;5037905;28;20033;-62
2023/11/18 03:37:42;;;;;;;3.08;2.13;;;1.50;99.90;;;;;;5045967;28;20107;-65
2023/11/18 03:40:13;;;;;;;2.78;1.85;;;1.50;99.90;;;;;;5030130;28;20147;-63
2023/11/18 03:42:47;;;;;;;4.30;2.00;;;1.50;99.90;;;;;;5031460;28;20065;-63
2023/11/18 03:45:18;;;;;;;4.53;1.85;;;1.50;99.90;;;;;;5013971;28;20241;-63
2023/11/18 03:47:47;;;;;;;3.03;2.22;;;1.50;99.90;;;;;;5035384;28;20561;-61
2023/11/18 03:50:14;;;;;;;3.88;1.92;;;1.50;99.90;;;;;;5032352;28;20484;-62
2023/11/18 03:52:41;;;;;;;1.83;1.50;;;1.50;99.90;;;;;;5031279;28;20061;-61
2023/11/18 03:55:08;;;;;;;3.53;2.15;;;1.50;99.90;;;;;;5035402;28;20120;-72
2023/11/18 03:57:35;;;;;;;2.58;1.92;;;1.50;99.90;;;;;;5014317;28;20058;-60
2023/11/18 04:00:03;;;;;;;3.67;2.08;;;1.50;99.90;;;;;;5016096;28;20822;-62
2023/11/18 04:02:36;;;;;;;3.95;2.33;;;1.40;99.90;;;;;;5028682;28;20053;-61
2023/11/18 04:05:03;;;;;;;1.75;1.20;;;1.40;99.90;;;;;;5035110;28;20033;-69
2023/11/18 04:07:30;;;;;;;4.28;1.90;;;1.40;99.90;;;;;;5011926;28;20049;-61
2023/11/18 04:09:57;;;;;;;2.70;2.22;;;1.40;99.90;;;;;;5032485;28;20072;-61
2023/11/18 04:12:24;;;;;;;3.90;2.47;;;1.40;99.90;;;;;;5031236;28;20053;-62
2023/11/18 04:14:53;;;;;;;2.00;1.58;;;1.40;99.90;;;;;;5019285;28;20054;-60
2023/11/18 04:17:20;;;;;;;2.80;2.35;;;1.40;99.90;;;;;;5030477;28;20080;-63
2023/11/18 04:19:47;;;;;;;3.80;2.03;;;1.40;99.90;;;;;;5031289;28;20052;-63
2023/11/18 04:22:15;;;;;;;3.45;2.30;;;1.40;99.90;;;;;;5014232;28;20067;-60
2023/11/18 04:24:45;;;;;;;2.42;2.13;;;1.40;99.90;;;;;;5016592;28;20053;-60
2023/11/18 04:27:12;;;;;;;6.78;2.25;;;1.40;99.90;;;;;;5041871;28;20543;-60
2023/11/18 04:29:40;;;;;;;3.50;2.38;;;1.30;99.90;;;;;;5040901;28;20048;-61
2023/11/18 04:32:10;;;;;;;2.88;2.28;;;1.30;99.90;;;;;;5015429;28;20064;-61
2023/11/18 04:34:37;;;;;;;4.38;2.38;;;1.30;99.90;;;;;;5014091;28;20037;-62
2023/11/18 04:37:04;;;;;;;3.22;2.83;;;1.30;99.90;;;;;;5031955;28;20038;-64
2023/11/18 04:39:32;;;;;;;2.33;1.63;;;1.30;99.90;;;;;;5015647;28;20059;-65
2023/11/18 04:42:01;;;;;;;3.40;2.15;;;1.20;99.90;;;;;;5032152;28;20114;-65
2023/11/18 04:44:28;;;;;;;1.95;1.73;;;1.20;99.90;;;;;;5027040;28;20051;-62
2023/11/18 04:46:54;;;;;;;3.50;2.55;;;1.10;99.90;;;;;;5057331;28;20540;-64
2023/11/18 04:49:21;;;;;;;2.97;2.47;;;1.10;99.90;;;;;;5052922;28;20534;-64
2023/11/18 04:51:49;;;;;;;2.15;1.55;;;1.10;99.90;;;;;;5052260;28;20122;-66
2023/11/18 04:54:15;;;;;;;5.50;2.90;;;1.00;99.90;;;;;;5056830;28;20044;-65
2023/11/18 04:56:44;;;;;;;3.50;2.22;;;1.00;99.90;;;;;;5049431;28;20030;-64
2023/11/18 04:59:11;;;;;;;2.22;2.03;;;1.00;99.90;;;;;;5047195;28;20044;-65
2023/11/18 05:01:37;;;;;;;2.95;2.28;;;1.00;99.90;;;;;;5041858;28;20041;-60
2023/11/18 05:04:06;;;;;;;3.55;2.38;;;0.90;99.90;;;;;;5053638;28;20106;-60
2023/11/18 05:06:33;;;;;;;2.13;1.70;;;0.90;99.90;;;;;;5047146;28;20045;-61
2023/11/18 05:08:59;;;;;;;3.28;2.28;;;1.00;99.90;;;;;;5035666;28;20079;-63
2023/11/18 05:11:26;;;;;;;2.13;1.92;;;0.90;99.90;;;;;;5036020;28;20064;-63
2023/11/18 05:13:53;;;;;;;3.30;2.35;;;1.00;99.90;;;;;;5051185;28;20044;-68
2023/11/18 05:16:20;;;;;;;2.63;2.22;;;0.90;99.90;;;;;;5048963;28;20040;-60
2023/11/18 05:18:47;;;;;;;2.83;1.90;;;0.90;99.90;;;;;;5048794;28;20045;-62
2023/11/18 05:21:14;;;;;;;4.00;2.25;;;0.90;99.90;;;;;;5055905;28;20170;-65
2023/11/18 05:23:41;;;;;;;4.55;3.05;;;0.90;99.90;;;;;;5051034;28;20102;-60
2023/11/18 05:26:09;;;;;;;2.92;2.63;;;0.90;99.90;;;;;;5050055;28;20041;-62
2023/11/18 05:28:36;;;;;;;3.65;2.10;;;0.90;99.90;;;;;;5055268;28;20135;-63
2023/11/18 05:31:04;;;;;;;4.70;2.40;;;0.90;99.90;;;;;;5053946;28;20071;-61
2023/11/18 05:33:34;;;;;;;3.05;2.70;;;0.90;99.90;;;;;;5054653;28;20041;-60
2023/11/18 05:36:01;;;;;;;3.40;2.93;;;1.00;99.90;;;;;;5036412;28;20041;-70
2023/11/18 05:38:32;;;;;;;2.90;2.30;;;1.10;99.90;;;;;;5046881;28;20266;-63
2023/11/18 05:41:01;;;;;;;3.17;2.83;;;1.10;99.90;;;;;;5051252;28;20082;-60
2023/11/18 05:43:36;;;;;;;3.60;2.85;;;1.10;99.90;;;;;;5051229;28;20052;-63
2023/11/18 05:48:50;;;;;;;3.38;3.08;;;1.10;99.90;;;;;;5048876;28;20071;-61
2023/11/18 05:51:25;;;;;;;2.58;2.20;;;1.10;99.90;;;;;;5037904;28;20044;-62
2023/11/18 05:53:52;;;;;;;3.63;2.78;;;1.20;99.90;;;;;;5052362;28;20049;-61
2023/11/18 05:56:22;;;;;;;2.80;2.33;;;1.20;99.90;;;;;;5032348;28;20033;-64
2023/11/18 05:58:50;;;;;;;4.10;3.15;;;1.20;99.90;;;;;;5040809;28;21792;-63
2023/11/18 06:01:18;;;;;;;2.47;1.85;;;1.20;99.90;;;;;;5041406;28;20121;-63
2023/11/18 06:03:45;;;;;;;2.55;2.03;;;1.30;99.90;;;;;;5048179;28;20095;-60
2023/11/18 06:06:16;;;;;;;2.58;1.75;;;1.20;99.90;;;;;;5049334;28;20118;-66
2023/11/18 06:08:49;;;;;;;2.60;2.38;;;1.30;99.90;;;;;;5046507;28;20106;-63
2023/11/18 06:11:18;;;;;;;3.85;1.85;;;1.30;99.90;;;;;;5042103;28;20087;-60
2023/11/18 06:13:51;;;;;;;2.40;1.80;;;1.30;99.90;;;;;;5049466;28;20102;-62
2023/11/18 06:16:20;;;;;;;3.00;2.00;;;1.30;99.90;;;;;;5034733;28;20454;-62
2023/11/18 06:18:49;;;;;;;4.45;2.45;;;1.20;99.90;;;;;;5053847;28;20068;-60
2023/11/18 06:21:24;;;;;;;3.15;2.70;;;1.20;99.90;;;;;;5045521;28;20037;-65
2023/11/18 06:23:51;;;;;;;3.83;2.40;;;1.20;99.90;;;;;;5053540;28;20044;-64
2023/11/18 06:26:19;;;;;;;3.25;2.47;;;1.20;99.90;;;;;;5051667;28;20045;-60
2023/11/18 06:28:49;;;;;;;4.53;3.10;;;1.20;99.90;;;;;;5048959;28;20128;-60
2023/11/18 06:31:16;;;;;;;3.70;2.70;;;1.20;99.90;;;;;;5049113;28;20063;-63
2023/11/18 06:33:44;;;;;;;3.30;2.78;;;1.20;99.90;;;;;;5047786;28;20578;-65
2023/11/18 06:36:14;;;;;;;3.65;2.90;;;1.20;99.90;;;;;;5047243;28;20083;-64
2023/11/18 06:38:41;;;;;;;3.38;3.08;;;1.20;99.90;;;;;;5050879;28;20037;-60
2023/11/18 06:41:10;;;;;;;3.35;2.58;;;1.10;99.90;;;;;;5048088;28;20087;-71
2023/11/18 06:46:23;;;;;;;3.88;2.03;;;1.10;99.90;;;;;;5052053;28;20040;-60
2023/11/18 06:48:54;;;;;;;2.58;2.13;;;1.10;99.90;;;;;;5043189;28;20060;-65
2023/11/18 06:51:25;;;;;;;4.55;2.63;;;1.10;99.90;;;;;;5045419;28;20489;-62
2023/11/18 06:53:54;;;;;;;2.90;2.38;;;1.10;99.90;;;;;;5035838;28;20042;-61
2023/11/18 06:56:25;;;;;;;3.75;2.47;;;1.10;99.90;;;;;;5050762;28;20509;-60
2023/11/18 06:58:53;;;;;;;3.45;2.95;;;1.10;99.90;;;;;;5044756;28;20034;-64
2023/11/18 07:01:20;;;;;;;3.10;2.38;;;1.10;99.90;;;;;;5046666;28;20533;-60
2023/11/18 07:03:48;;;;;;;2.65;2.22;;;1.00;99.90;;;;;;5035898;28;20066;-59
2023/11/18 07:06:23;;;;;;;4.68;2.45;;;1.00;99.90;;;;;;5046909;28;20435;-60
2023/11/18 07:08:50;;;;;;;3.95;2.70;;;1.00;99.90;;;;;;5047225;28;20119;-59
2023/11/18 07:11:18;;;;;;;4.18;2.35;;;1.00;99.90;;;;;;5054599;28;20106;-65
2023/11/18 07:13:47;;;;;;;3.47;2.55;;;1.00;99.90;;;;;;5050168;28;20471;-61
2023/11/18 07:16:14;;;;;;;3.97;2.88;;;1.00;99.90;;;;;;5051635;28;20119;-63
2023/11/18 07:18:42;;;;;;;3.15;2.22;;;1.00;99.90;;;;;;5054833;28;20044;-61
2023/11/18 07:21:09;;;;;;;3.55;2.53;;;1.00;99.90;;;;;;5042956;28;20076;-60
2023/11/18 07:23:36;;;;;;;3.22;2.92;;;1.00;99.90;;;;;;5056027;28;20036;-65
2023/11/18 07:26:03;;;;;;;4.28;3.05;;;1.00;99.90;;;;;;5047968;28;20124;-60
2023/11/18 07:28:31;;;;;;;3.40;2.40;;;1.00;99.90;;;;;;5048620;28;20048;-63
2023/11/18 07:30:59;;;;;;;3.65;3.08;;;1.10;99.90;;;;;;5045433;28;20041;-62
2023/11/18 07:33:26;;;;;;;3.30;3.00;;;1.10;99.90;;;;;;5044600;28;20572;-60
2023/11/18 07:35:54;;;;;;;4.82;3.53;;;1.10;99.90;;;;;;5052403;28;20053;-63
2023/11/18 07:38:22;;;;;;;3.60;3.25;;;1.10;99.90;;;;;;5054319;28;20099;-60
2023/11/18 07:40:49;;;;;;;3.22;2.55;;;1.20;99.90;;;;;;5053540;28;20057;-61
2023/11/18 07:43:16;;;;;;;4.05;2.45;;;1.20;99.90;;;;;;5056316;28;20044;-60
2023/11/18 07:45:43;;;;;;;3.33;1.95;;;1.20;99.90;;;;;;5052942;28;20069;-61
2023/11/18 07:48:16;;;;;;;2.35;2.13;;;1.20;99.90;;;;;;5054485;28;20029;-60
2023/11/18 07:50:44;;;;;;;4.82;2.03;;;1.20;99.90;;;;;;5051055;28;20029;-62
2023/11/18 07:53:11;;;;;;;3.63;2.45;;;1.20;99.90;;;;;;5049621;28;20043;-62
2023/11/18 07:55:39;;;;;;;3.10;2.63;;;1.20;99.90;;;;;;5054557;28;20359;-66
2023/11/18 07:58:10;;;;;;;3.10;1.98;;;1.30;99.90;;;;;;5050364;28;20048;-61
2023/11/18 08:00:42;;;;;;;4.00;2.53;;;1.30;99.90;;;;;;5050623;28;20124;-69
2023/11/18 08:03:13;;;;;;;7.88;3.15;;;1.30;99.90;;;;;;5053425;28;20090;-63
2023/11/18 08:05:45;;;;;;;3.65;2.78;;;1.30;99.90;;;;;;5052347;28;20045;-61
2023/11/18 08:08:13;;;;;;;12.48;5.10;;;1.30;99.90;;;;;;5060441;28;20272;-63
2023/11/18 08:10:41;;;;;;;7.10;3.80;;;1.40;99.90;;;;;;5055461;28;20045;-61
2023/11/18 08:13:10;;;;;;;3.20;2.47;;;1.30;99.90;;;;;;5050149;28;20037;-62
2023/11/18 08:15:41;;;;;;;4.65;3.05;;;1.40;99.90;;;;;;5055076;28;20099;-62
2023/11/18 08:18:11;;;;;;;4.40;2.72;;;1.40;99.90;;;;;;5051788;28;20045;-63
2023/11/18 08:20:38;;;;;;;3.28;2.97;;;1.40;99.90;;;;;;5053184;28;20048;-60
2023/11/18 08:23:05;;;;;;;3.75;1.85;;;1.40;99.90;;;;;;5057669;28;20072;-67
2023/11/18 08:25:40;;;;;;;4.07;2.53;;;1.40;99.90;;;;;;5048968;28;20044;-61
2023/11/18 08:28:08;;;;;;;5.25;2.30;;;1.50;99.90;;;;;;5062536;28;20059;-63
2023/11/18 08:30:37;;;;;;;4.50;3.08;;;1.40;99.90;;;;;;5050154;28;20033;-66
2023/11/18 08:33:04;;;;;;;3.47;3.17;;;1.50;99.90;;;;;;5059367;28;20090;-63
2023/11/18 08:35:32;;;;;;;2.70;2.15;;;1.50;99.90;;;;;;5056940;28;20703;-62
2023/11/18 08:38:01;;;;;;;2.67;2.05;;;1.50;99.90;;;;;;5053515;28;20688;-61
2023/11/18 08:40:28;;;;;;;8.02;3.03;;;1.60;99.90;;;;;;5050355;28;20052;-66
2023/11/18 08:42:56;;;;;;;3.20;2.70;;;1.60;99.90;;;;;;5055234;28;20064;-61
2023/11/18 08:45:29;;;;;;;3.80;2.63;;;1.60;99.90;;;;;;5054564;28;20041;-64
2023/11/18 08:47:57;;;;;;;11.10;3.85;;;1.60;99.90;;;;;;5058975;28;20059;-60
2023/11/18 08:50:26;;;;;;;4.00;2.88;;;1.60;99.90;;;;;;5049576;28;20107;-63
2023/11/18 08:52:59;;;;;;;3.35;2.83;;;1.70;99.90;;;;;;5046726;28;20134;-66
2023/11/18 08:55:39;;;;;;;5.03;2.90;;;1.70;99.90;;;;;;5042062;28;20044;-62
2023/11/18 08:58:33;;;;;;;5.93;3.17;;;1.70;99.90;;;;;;5054189;28;20115;-60
2023/11/18 09:01:12;;;;;;;4.10;3.13;;;1.70;99.90;;;;;;5054260;28;20033;-63
2023/11/18 09:03:48;;;;;;;7.25;3.92;;;1.70;99.90;;;;;;5049477;28;20731;-60
2023/11/18 09:06:19;;;;;;;4.65;3.42;;;1.80;99.90;;;;;;5051178;28;20041;-67
2023/11/18 09:08:52;;;;;;;4.78;2.83;;;1.80;99.90;;;;;;5048769;28;20494;-64
2023/11/18 09:11:22;;;;;;;4.30;3.30;;;1.80;99.90;;;;;;5037547;28;20046;-63
2023/11/18 09:13:53;;;;;;;4.57;3.03;;;1.90;99.90;;;;;;5048063;28;20076;-61
2023/11/18 09:16:30;;;;;;;3.88;3.00;;;1.90;99.90;;;;;;5050565;28;20817;-60
2023/11/18 09:19:02;;;;;;;6.15;2.65;;;1.90;99.90;;;;;;5047840;28;20049;-62
2023/11/18 09:21:34;;;;;;;6.30;3.15;;;1.90;99.90;;;;;;5046659;28;20037;-61
2023/11/18 09:24:05;;;;;;;4.88;3.28;;;2.00;99.90;;;;;;5048374;28;20510;-64
2023/11/18 09:26:32;;;;;;;6.72;4.05;;;2.00;99.90;;;;;;5055417;28;20103;-60
2023/11/18 09:29:01;;;;;;;3.38;2.58;;;2.00;99.90;;;;;;5051068;28;20041;-65
2023/11/18 09:31:28;;;;;;;4.10;2.53;;;2.00;99.90;;;;;;5046538;28;20514;-64
2023/11/18 09:33:57;;;;;;;3.55;2.55;;;2.00;99.90;;;;;;5048696;28;20045;-65
2023/11/18 09:36:24;;;;;;;3.03;2.47;;;1.90;99.90;;;;;;5046753;28;20181;-60
2023/11/18 09:38:52;;;;;;;5.10;2.40;;;1.90;99.90;;;;;;5052018;28;20123;-61
2023/11/18 09:41:24;;;;;;;4.10;3.00;;;1.90;99.90;;;;;;5049855;28;20048;-65
2023/11/18 09:43:54;;;;;;;5.78;3.33;;;1.90;99.90;;;;;;5038930;28;20048;-71
2023/11/18 09:46:32;;;;;;;5.38;3.88;;;1.90;99.90;;;;;;5048830;28;20449;-60
2023/11/18 09:49:25;;;;;;;6.90;3.53;;;1.90;99.90;;;;;;5046150;28;20053;-61
2023/11/18 09:51:57;;;;;;;3.22;1.90;;;1.90;99.90;;;;;;5043800;28;20049;-64
2023/11/18 09:54:41;;;;;;;9.50;3.03;;;2.00;99.90;;;;;;5052222;28;20040;-62
2023/11/18 09:57:39;;;;;;;2.72;2.13;;;2.10;99.90;;;;;;5038102;28;20037;-64
2023/11/18 10:02:56;;;;;;;2.60;1.80;;;2.30;99.90;;;;;;5045130;28;20045;-64
2023/11/18 10:05:26;;;;;;;15.88;1.83;;;2.30;99.90;;;;;;5051236;28;20045;-66
2023/11/18 10:07:54;;;;;;;3.13;1.70;;;2.40;99.90;;;;;;5052561;28;20051;-62
2023/11/18 10:10:21;;;;;;;2.42;1.75;;;2.40;99.90;;;;;;5041231;28;20045;-67
2023/11/18 10:12:57;;;;;;;2.63;2.03;;;2.40;99.90;;;;;;5053417;28;20390;-65
2023/11/18 10:15:25;;;;;;;2.90;2.42;;;2.50;99.90;;;;;;5042560;28;20037;-64
2023/11/18 10:18:09;;;;;;;2.40;2.00;;;2.50;99.90;;;;;;5030615;28;20045;-60
2023/11/18 10:20:41;;;;;;;1.88;1.65;;;2.50;99.90;;;;;;5048546;28;20044;-61
2023/11/18 10:23:12;;;;;;;3.38;1.13;;;2.50;99.90;;;;;;5042315;28;20052;-62
2023/11/18 10:25:45;;;;;;;;;;;2.50;99.90;;;;;;5048139;28;20051;-69
2023/11/18 10:28:41;;;;;;;2.33;1.10;;;2.50;99.90;;;;;;5043575;28;19979;-60
2023/11/18 10:31:15;;;;;;;1.35;1.25;;;2.60;99.90;;;;;;5025299;28;20084;-65
2023/11/18 10:33:42;;;;;;;2.60;1.58;;;2.60;99.90;;;;;;5045726;28;20045;-61
2023/11/18 10:36:24;;;;;;;2.17;1.60;;;2.60;99.90;;;;;;5052629;28;20045;-61
2023/11/18 10:38:55;;;;;;;2.25;1.52;;;2.60;99.90;;;;;;5051001;28;20091;-60
2023/11/18 10:41:25;;;;;;;2.80;1.40;;;2.60;99.90;;;;;;5047470;28;20057;-60
2023/11/18 10:44:13;;;;;;;1.85;1.38;;;2.60;99.90;;;;;;5051804;28;20052;-61
2023/11/18 10:46:52;;;;;;;3.58;1.65;;;2.70;99.90;;;;;;5047743;28;20060;-64
2023/11/18 10:49:23;;;;;;;3.13;1.58;;;2.70;99.90;;;;;;5045203;28;20052;-69
2023/11/18 10:51:52;;;;;;;1.90;1.40;;;2.70;99.90;;;;;;5055475;28;20041;-64
2023/11/18 10:54:19;;;;;;;2.25;1.60;;;2.70;99.90;;;;;;5047259;28;20487;-67
2023/11/18 10:56:47;;;;;;;3.17;1.48;;;2.60;99.90;;;;;;5046227;28;20145;-70
2023/11/18 10:59:18;;;;;;;2.10;1.50;;;2.60;99.90;;;;;;5051938;28;20467;-67
2023/11/18 11:01:48;;;;;;;2.92;1.67;;;2.70;99.90;;;;;;5053574;28;20047;-64
2023/11/18 11:04:22;;;;;;;2.60;1.38;;;2.70;99.90;;;;;;5043879;28;20125;-67
2023/11/18 11:06:53;;;;;;;4.45;2.08;;;2.70;99.90;;;;;;5048774;28;20053;-65
2023/11/18 11:09:27;;;;;;;1.90;1.70;;;2.60;99.90;;;;;;5052930;28;20080;-62
2023/11/18 11:12:04;;;;;;;8.77;1.80;;;2.70;99.90;;;;;;5048579;28;20107;-61
2023/11/18 11:14:42;;;;;;;7.32;1.88;;;2.70;99.90;;;;;;5041196;28;20074;-64
2023/11/18 11:17:23;;;;;;;3.83;1.83;;;2.70;99.90;;;;;;5044285;28;20529;-64
2023/11/18 11:19:56;;;;;;;;;;;2.70;99.90;;;;;;5049876;28;20055;-62
2023/11/18 11:22:47;;;;;;;3.33;2.13;;;2.70;99.90;;;;;;5042856;28;19975;-61
2023/11/18 11:25:24;;;;;;;2.17;1.65;;;2.80;99.90;;;;;;5049927;28;20094;-65
2023/11/18 11:28:02;;;;;;;3.63;1.70;;;2.80;99.90;;;;;;5043583;28;20410;-65
2023/11/18 11:30:32;;;;;;;2.60;2.03;;;2.70;99.90;;;;;;5047610;28;20426;-61
2023/11/18 11:33:16;;;;;;;2.35;1.98;;;2.80;99.90;;;;;;5050226;28;20776;-63
2023/11/18 11:35:48;;;;;;;4.07;2.17;;;2.80;99.90;;;;;;5050440;28;20095;-72
2023/11/18 11:38:16;;;;;;;2.00;1.48;;;2.80;99.90;;;;;;5054917;28;20037;-61
2023/11/18 11:40:44;;;;;;;2.13;1.65;;;2.80;99.90;;;;;;5051279;28;20045;-61
2023/11/18 11:43:15;;;;;;;2.38;1.27;;;2.70;99.90;;;;;;5051953;28;20120;-61
2023/11/18 11:45:47;;;;;;;3.05;1.20;;;2.80;99.90;;;;;;5052751;28;20040;-60
2023/11/18 11:48:19;;;;;;;3.30;1.77;;;2.80;99.90;;;;;;5056221;28;20044;-61
2023/11/18 11:51:20;;;;;;;1.70;1.40;;;2.80;99.90;;;;;;5047132;28;20555;-62
2023/11/18 11:53:53;;;;;;;1.95;1.63;;;2.80;99.90;;;;;;5049686;28;20053;-64
2023/11/18 11:56:24;;;;;;;2.17;1.85;;;2.90;99.90;;;;;;5056075;28;20061;-61
2023/11/18 11:58:52;;;;;;;3.50;2.05;;;2.90;99.90;;;;;;5046407;28;20041;-61
2023/11/18 12:01:32;;;;;;;1.25;1.15;;;2.80;99.90;;;;;;5058468;28;20040;-60
2023/11/18 12:04:06;;;;;;;2.17;1.90;;;2.90;99.90;;;;;;5047312;28;20029;-62
2023/11/18 12:06:37;;;;;;;2.13;1.50;;;2.80;99.90;;;;;;5050029;28;20068;-61
2023/11/18 12:09:07;;;;;;;2.22;1.40;;;2.80;99.90;;;;;;5052438;28;20471;-64
2023/11/18 12:11:39;;;;;;;2.15;1.60;;;2.80;99.90;;;;;;5051634;28;20095;-61
2023/11/18 12:17:11;;;;;;;2.17;1.55;;;2.90;99.90;;;;;;5053311;28;20257;-61
2023/11/18 12:19:48;;;;;;;2.38;1.42;;;2.90;99.90;;;;;;5049823;28;20033;-64
2023/11/18 12:22:17;;;;;;;4.35;2.20;;;2.90;99.90;;;;;;5034792;28;20132;-61
2023/11/18 12:24:57;;;;;;;2.00;1.23;;;2.90;99.90;;;;;;5047214;28;20119;-63
2023/11/18 12:27:58;;;;;;;1.35;1.00;;;2.80;99.90;;;;;;5053936;28;20121;-63
2023/11/18 12:30:30;;;;;;;1.92;1.45;;;2.80;99.90;;;;;;5037786;28;21450;-62
2023/11/18 12:33:05;;;;;;;1.80;0.80;;;2.80;99.90;;;;;;5053081;28;20037;-63
2023/11/18 12:35:43;;;;;;;1.95;1.23;;;2.70;99.90;;;;;;5059982;28;20045;-62
2023/11/18 12:38:34;;;;;;;;;;;2.80;99.90;;;;;;5051532;28;20120;-66
2023/11/18 12:41:04;;;;;;;1.60;1.13;;;2.80;99.90;;;;;;5051043;28;20364;-67
2023/11/18 12:43:47;;;;;;;1.33;0.77;;;2.80;99.90;;;;;;5055887;28;20041;-66
2023/11/18 12:46:55;;;;;;;1.48;1.13;;;2.80;99.90;;;;;;5054785;28;20041;-61
2023/11/18 12:49:23;;;;;;;1.85;1.10;;;2.90;99.90;;;;;;5030918;28;20457;-64
2023/11/18 12:51:52;;;;;;;0.93;0.70;;;2.80;99.90;;;;;;5050456;28;20465;-69
2023/11/18 12:54:20;;;;;;;1.95;0.95;;;2.80;99.90;;;;;;5045478;28;20098;-60
2023/11/18 12:56:53;;;;;;;3.20;1.15;;;2.80;99.90;;;;;;5042717;28;20034;-72
2023/11/18 12:59:21;;;;;;;0.80;0.70;;;2.80;99.90;;;;;;5048514;28;20041;-63
2023/11/18 13:01:53;;;;;;;2.40;2.10;;;2.80;99.90;;;;;;5054581;28;20037;-61
2023/11/18 13:04:21;;;;;;;0.80;0.70;;;2.80;99.90;;;;;;5045130;28;20045;-60
2023/11/18 13:06:51;;;;;;;1.52;1.10;;;2.80;99.90;;;;;;5043317;28;20041;-66
2023/11/18 13:09:24;;;;;;;1.80;1.10;;;2.80;99.90;;;;;;5054541;28;20429;-61
2023/11/18 13:11:56;;;;;;;2.00;1.13;;;2.80;99.90;;;;;;5048868;28;20032;-62
2023/11/18 13:14:28;;;;;;;0.85;0.77;;;2.80;99.90;;;;;;5049841;28;20036;-63
2023/11/18 13:16:57;;;;;;;1.13;1.00;;;2.80;99.90;;;;;;5046698;28;20537;-63
2023/11/18 13:19:28;;;;;;;1.52;0.88;;;2.70;99.90;;;;;;5054008;28;20135;-62
2023/11/18 13:21:59;;;;;;;2.28;1.00;;;2.70;99.90;;;;;;5048343;28;20044;-62
2023/11/18 13:24:27;;;;;;;2.63;0.73;;;2.70;99.90;;;;;;5049308;28;20041;-63
2023/11/18 13:26:55;;;;;;;1.70;1.25;;;2.60;99.90;;;;;;5057186;28;20167;-63